createdAt,value
2022-10-21T00:00:41.119Z,99.99
2022-10-21T00:01:41.126Z,99.99
2022-10-21T00:02:41.262Z,99.99
2022-10-21T00:03:41.133Z,99.99
2022-10-21T00:04:40.964Z,99.99
2022-10-21T00:05:40.916Z,99.99
2022-10-21T00:06:40.866Z,99.99
2022-10-21T00:07:40.820Z,99.99
2022-10-21T00:08:40.889Z,99.99
2022-10-21T00:09:40.787Z,99.99
2022-10-21T00:10:40.703Z,99.99
2022-10-21T00:11:40.661Z,99.99
2022-10-21T00:12:40.854Z,99.99
2022-10-21T00:13:40.567Z,99.99
2022-10-21T00:14:40.527Z,99.99
2022-10-21T00:15:40.490Z,99.99
2022-10-21T00:16:40.522Z,99.99
2022-10-21T00:17:40.476Z,99.99
2022-10-21T00:18:40.358Z,99.99
2022-10-21T00:19:40.320Z,99.99
2022-10-21T00:20:40.284Z,99.99
2022-10-21T00:21:40.234Z,99.99
2022-10-21T00:22:40.579Z,99.99
2022-10-21T00:23:40.171Z,99.99
2022-10-21T00:24:40.107Z,99.99
2022-10-21T00:25:40.064Z,99.99
2022-10-21T00:26:40.082Z,99.99
2022-10-21T00:27:40.124Z,99.99
2022-10-21T00:28:39.957Z,99.99
2022-10-21T00:29:39.919Z,99.99
2022-10-21T00:30:39.854Z,99.99
2022-10-21T00:31:39.841Z,99.99
2022-10-21T00:32:40.058Z,99.99
2022-10-21T00:33:39.728Z,99.99
2022-10-21T00:34:39.686Z,99.99
2022-10-21T00:35:39.688Z,99.99
2022-10-21T00:36:39.618Z,99.99
2022-10-21T00:37:39.928Z,99.99
2022-10-21T00:38:39.514Z,99.99
2022-10-21T00:39:39.560Z,99.99
2022-10-21T00:40:39.456Z,99.99
2022-10-21T00:41:39.420Z,99.99
2022-10-21T00:42:42.134Z,99.99
2022-10-21T00:43:39.342Z,99.99
2022-10-21T00:44:39.286Z,99.99
2022-10-21T00:45:39.229Z,99.99
2022-10-21T00:46:39.186Z,99.99
2022-10-21T00:47:39.197Z,99.99
2022-10-21T00:48:39.094Z,99.99
2022-10-21T00:49:39.056Z,99.99
2022-10-21T00:50:41.808Z,99.99
2022-10-21T00:51:38.975Z,99.99
2022-10-21T00:52:39.320Z,99.99
2022-10-21T00:53:38.891Z,99.99
2022-10-21T00:54:38.889Z,99.99
2022-10-21T00:55:38.835Z,99.99
2022-10-21T00:56:38.806Z,99.99
2022-10-21T00:57:38.892Z,99.99
2022-10-21T00:58:38.672Z,99.99
2022-10-21T00:59:38.637Z,99.99
2022-10-21T01:00:38.730Z,99.99
2022-10-21T01:01:38.734Z,99.99
2022-10-21T01:02:38.507Z,99.99
2022-10-21T01:03:38.477Z,99.99
2022-10-21T01:04:38.424Z,99.99
2022-10-21T01:05:38.512Z,99.99
2022-10-21T01:06:38.333Z,99.99
2022-10-21T01:07:41.103Z,99.99
2022-10-21T01:08:38.271Z,99.99
2022-10-21T01:09:38.212Z,99.99
2022-10-21T01:10:38.168Z,99.99
2022-10-21T01:11:38.152Z,99.99
2022-10-21T01:12:38.082Z,99.99
2022-10-21T01:13:38.050Z,99.99
2022-10-21T01:14:38.000Z,99.99
2022-10-21T01:15:37.964Z,99.99
2022-10-21T01:16:37.915Z,99.99
2022-10-21T01:17:44.919Z,99.99
2022-10-21T01:18:37.838Z,99.99
2022-10-21T01:19:37.790Z,99.99
2022-10-21T01:20:37.745Z,99.99
2022-10-21T01:21:37.704Z,99.99
2022-10-21T01:22:37.668Z,99.99
2022-10-21T01:23:37.649Z,99.99
2022-10-21T01:24:37.585Z,99.99
2022-10-21T01:25:37.557Z,99.99
2022-10-21T01:26:37.505Z,99.99
2022-10-21T01:27:37.780Z,99.99
2022-10-21T01:28:37.410Z,99.99
2022-10-21T01:29:37.374Z,99.99
2022-10-21T01:30:37.324Z,99.99
2022-10-21T01:31:37.308Z,99.99
2022-10-21T01:32:37.240Z,99.99
2022-10-21T01:33:37.196Z,99.99
2022-10-21T01:34:37.167Z,99.99
2022-10-21T01:35:37.110Z,99.99
2022-10-21T01:36:37.083Z,99.99
2022-10-21T01:37:37.302Z,99.99
2022-10-21T01:38:37.006Z,99.99
2022-10-21T01:39:36.943Z,99.99
2022-10-21T01:40:36.900Z,99.99
2022-10-21T01:41:36.858Z,99.99
2022-10-21T01:42:37.086Z,99.99
2022-10-21T01:43:36.770Z,99.99
2022-10-21T01:44:36.740Z,99.99
2022-10-21T01:45:36.686Z,99.99
2022-10-21T01:46:36.647Z,99.99
2022-10-21T01:47:36.599Z,99.99
2022-10-21T01:48:36.562Z,99.99
2022-10-21T01:49:36.539Z,99.99
2022-10-21T01:50:36.480Z,99.99
2022-10-21T01:51:36.432Z,99.99
2022-10-21T01:52:36.642Z,99.99
2022-10-21T01:53:36.347Z,99.99
2022-10-21T01:54:36.404Z,99.99
2022-10-21T01:55:36.283Z,99.99
2022-10-21T01:56:36.224Z,99.99
2022-10-21T01:57:36.177Z,99.99
2022-10-21T01:58:36.138Z,99.99
2022-10-21T01:59:36.106Z,99.99
2022-10-21T02:00:36.068Z,99.99
2022-10-21T02:01:36.069Z,99.99
2022-10-21T02:02:36.186Z,99.99
2022-10-21T02:03:35.918Z,99.99
2022-10-21T02:04:35.889Z,99.99
2022-10-21T02:05:35.836Z,99.99
2022-10-21T02:06:35.795Z,99.99
2022-10-21T02:07:35.752Z,99.99
2022-10-21T02:08:35.741Z,99.99
2022-10-21T02:09:35.698Z,99.99
2022-10-21T02:10:35.629Z,99.99
2022-10-21T02:11:35.583Z,99.99
2022-10-21T02:12:35.723Z,99.99
2022-10-21T02:13:35.497Z,99.99
2022-10-21T02:14:35.459Z,99.99
2022-10-21T02:15:35.426Z,99.99
2022-10-21T02:16:35.373Z,99.99
2022-10-21T02:17:35.502Z,99.99
2022-10-21T02:18:35.288Z,99.99
2022-10-21T02:19:35.246Z,99.99
2022-10-21T02:20:35.203Z,99.99
2022-10-21T02:21:35.169Z,99.99
2022-10-21T02:22:35.221Z,99.99
2022-10-21T02:23:35.096Z,99.99
2022-10-21T02:24:35.031Z,99.99
2022-10-21T02:25:34.992Z,99.99
2022-10-21T02:26:34.942Z,99.99
2022-10-21T02:27:34.907Z,99.99
2022-10-21T02:28:34.895Z,99.99
2022-10-21T02:29:34.841Z,99.99
2022-10-21T02:30:34.782Z,99.99
2022-10-21T02:31:34.758Z,99.99
2022-10-21T02:32:34.693Z,99.99
2022-10-21T02:33:34.649Z,99.99
2022-10-21T02:34:34.613Z,99.99
2022-10-21T02:35:34.597Z,99.99
2022-10-21T02:36:34.528Z,99.99
2022-10-21T02:37:34.519Z,99.99
2022-10-21T02:38:34.439Z,99.99
2022-10-21T02:39:34.393Z,99.99
2022-10-21T02:40:34.353Z,99.99
2022-10-21T02:41:34.328Z,99.99
2022-10-21T02:42:34.273Z,99.99
2022-10-21T02:43:34.227Z,99.99
2022-10-21T02:44:34.182Z,99.99
2022-10-21T02:45:34.139Z,99.99
2022-10-21T02:46:34.099Z,99.99
2022-10-21T02:47:34.075Z,99.99
2022-10-21T02:48:34.016Z,99.99
2022-10-21T02:49:33.969Z,99.99
2022-10-21T02:50:33.934Z,99.99
2022-10-21T02:51:33.890Z,99.99
2022-10-21T02:52:33.846Z,99.99
2022-10-21T02:53:33.830Z,99.99
2022-10-21T02:54:33.766Z,99.99
2022-10-21T02:55:33.718Z,99.99
2022-10-21T02:56:33.684Z,99.99
2022-10-21T02:57:33.632Z,99.99
2022-10-21T02:58:33.595Z,99.99
2022-10-21T02:59:33.567Z,99.99
2022-10-21T03:00:33.527Z,99.99
2022-10-21T03:01:33.465Z,99.99
2022-10-21T03:02:33.425Z,99.99
2022-10-21T03:03:33.382Z,99.99
2022-10-21T03:04:33.338Z,99.99
2022-10-21T03:05:33.346Z,99.99
2022-10-21T03:06:33.257Z,99.99
2022-10-21T03:07:33.214Z,99.99
2022-10-21T03:08:33.236Z,99.99
2022-10-21T03:09:33.129Z,99.99
2022-10-21T03:10:33.110Z,99.99
2022-10-21T03:11:33.048Z,99.99
2022-10-21T03:12:33.021Z,99.99
2022-10-21T03:13:32.958Z,99.99
2022-10-21T03:14:32.932Z,99.99
2022-10-21T03:15:32.878Z,99.99
2022-10-21T03:16:32.834Z,99.99
2022-10-21T03:17:32.788Z,99.99
2022-10-21T03:18:32.775Z,99.99
2022-10-21T03:19:32.708Z,99.99
2022-10-21T03:20:32.667Z,99.99
2022-10-21T03:21:32.624Z,99.99
2022-10-21T03:22:32.577Z,99.99
2022-10-21T03:23:32.540Z,99.99
2022-10-21T03:24:32.516Z,99.99
2022-10-21T03:25:35.519Z,99.99
2022-10-21T03:26:32.412Z,99.99
2022-10-21T03:28:32.339Z,99.99
2022-10-21T03:29:32.285Z,99.99
2022-10-21T03:30:32.265Z,99.99
2022-10-21T03:31:32.199Z,99.99
2022-10-21T03:32:32.164Z,99.99
2022-10-21T03:33:32.139Z,99.99
2022-10-21T03:34:32.075Z,99.99
2022-10-21T03:35:32.034Z,99.99
2022-10-21T03:36:32.015Z,99.99
2022-10-21T03:37:31.946Z,99.99
2022-10-21T03:38:31.907Z,99.99
2022-10-21T03:39:31.882Z,99.99
2022-10-21T03:40:31.820Z,99.99
2022-10-21T03:41:31.774Z,99.99
2022-10-21T03:42:31.739Z,99.99
2022-10-21T03:43:31.694Z,99.99
2022-10-21T03:44:31.649Z,99.99
2022-10-21T03:45:31.620Z,99.99
2022-10-21T03:46:31.573Z,99.99
2022-10-21T03:47:31.526Z,99.99
2022-10-21T03:48:31.487Z,99.99
2022-10-21T03:49:31.487Z,99.99
2022-10-21T03:50:31.419Z,99.99
2022-10-21T03:51:31.355Z,99.99
2022-10-21T03:52:31.314Z,99.99
2022-10-21T03:53:42.865Z,99.99
2022-10-21T03:54:31.224Z,99.99
2022-10-21T03:55:31.187Z,99.99
2022-10-21T03:56:31.156Z,99.99
2022-10-21T03:57:31.102Z,99.99
2022-10-21T03:58:31.080Z,99.99
2022-10-21T03:59:31.017Z,99.99
2022-10-21T04:00:31.779Z,99.99
2022-10-21T04:01:31.026Z,99.99
2022-10-21T04:02:30.895Z,99.99
2022-10-21T04:03:30.851Z,99.99
2022-10-21T04:04:30.832Z,99.99
2022-10-21T04:05:30.764Z,99.99
2022-10-21T04:06:30.719Z,99.99
2022-10-21T04:07:30.676Z,99.99
2022-10-21T04:08:30.660Z,99.99
2022-10-21T04:09:30.592Z,99.99
2022-10-21T04:10:30.603Z,99.99
2022-10-21T04:11:30.513Z,99.99
2022-10-21T04:12:30.470Z,99.99
2022-10-21T04:13:30.429Z,99.99
2022-10-21T04:14:30.383Z,99.99
2022-10-21T04:15:30.341Z,99.99
2022-10-21T04:16:30.338Z,99.99
2022-10-21T04:17:30.258Z,99.99
2022-10-21T04:18:30.217Z,99.99
2022-10-21T04:19:30.169Z,99.99
2022-10-21T04:20:30.128Z,99.99
2022-10-21T04:21:30.094Z,99.99
2022-10-21T04:22:30.076Z,99.99
2022-10-21T04:23:30.000Z,99.99
2022-10-21T04:24:29.991Z,99.99
2022-10-21T04:25:29.923Z,99.99
2022-10-21T04:26:29.873Z,99.99
2022-10-21T04:27:29.835Z,99.99
2022-10-21T04:28:29.791Z,99.99
2022-10-21T04:29:29.748Z,99.99
2022-10-21T04:30:29.723Z,99.99
2022-10-21T04:31:32.088Z,99.99
2022-10-21T04:32:29.620Z,99.99
2022-10-21T04:33:29.577Z,99.99
2022-10-21T04:34:29.542Z,99.99
2022-10-21T04:35:29.498Z,99.99
2022-10-21T04:36:29.470Z,99.99
2022-10-21T04:37:29.414Z,99.99
2022-10-21T04:38:29.368Z,99.99
2022-10-21T04:39:29.331Z,99.99
2022-10-21T04:40:29.286Z,99.99
2022-10-21T04:41:29.245Z,99.99
2022-10-21T04:42:29.234Z,99.99
2022-10-21T04:43:29.159Z,99.99
2022-10-21T04:44:29.113Z,99.99
2022-10-21T04:45:29.072Z,99.99
2022-10-21T04:46:29.037Z,99.99
2022-10-21T04:47:28.989Z,99.99
2022-10-21T04:48:28.969Z,99.99
2022-10-21T04:49:28.902Z,99.99
2022-10-21T04:50:28.861Z,99.99
2022-10-21T04:51:28.877Z,99.99
2022-10-21T04:52:28.775Z,99.99
2022-10-21T04:53:28.737Z,99.99
2022-10-21T04:54:28.710Z,99.99
2022-10-21T04:55:28.656Z,99.99
2022-10-21T04:56:28.613Z,99.99
2022-10-21T04:57:28.567Z,99.99
2022-10-21T04:58:28.526Z,99.99
2022-10-21T04:59:28.504Z,99.99
2022-10-21T05:00:28.443Z,99.99
2022-10-21T05:01:28.437Z,99.99
2022-10-21T05:02:28.355Z,99.99
2022-10-21T05:03:28.313Z,99.99
2022-10-21T05:04:28.277Z,99.99
2022-10-21T05:05:28.238Z,99.99
2022-10-21T05:06:28.191Z,99.99
2022-10-21T05:07:28.168Z,99.99
2022-10-21T05:08:28.229Z,99.99
2022-10-21T05:09:28.053Z,99.99
2022-10-21T05:10:28.107Z,99.99
2022-10-21T05:11:27.974Z,99.99
2022-10-21T05:12:28.013Z,99.99
2022-10-21T05:13:27.915Z,99.99
2022-10-21T05:14:27.850Z,99.99
2022-10-21T05:15:27.836Z,99.99
2022-10-21T05:16:27.764Z,99.99
2022-10-21T05:17:27.725Z,99.99
2022-10-21T05:18:27.683Z,99.99
2022-10-21T05:19:31.010Z,99.99
2022-10-21T05:20:27.597Z,99.99
2022-10-21T05:21:27.613Z,99.99
2022-10-21T05:22:27.518Z,99.99
2022-10-21T05:23:27.476Z,99.99
2022-10-21T05:24:27.426Z,99.99
2022-10-21T05:25:30.332Z,99.99
2022-10-21T05:26:27.341Z,99.99
2022-10-21T05:27:27.326Z,99.99
2022-10-21T05:28:27.265Z,99.99
2022-10-21T05:29:27.237Z,99.99
2022-10-21T05:30:27.251Z,99.99
2022-10-21T05:31:27.129Z,99.99
2022-10-21T05:32:27.086Z,99.99
2022-10-21T05:33:27.042Z,99.99
2022-10-21T05:34:27.013Z,99.99
2022-10-21T05:35:26.968Z,99.99
2022-10-21T05:36:26.920Z,99.99
2022-10-21T05:37:26.898Z,99.99
2022-10-21T05:38:26.832Z,99.99
2022-10-21T05:39:26.794Z,99.99
2022-10-21T05:40:26.752Z,99.99
2022-10-21T05:41:26.702Z,99.99
2022-10-21T05:42:26.667Z,99.99
2022-10-21T05:43:26.697Z,99.99
2022-10-21T05:44:26.607Z,99.99
2022-10-21T05:45:26.531Z,99.99
2022-10-21T05:46:26.495Z,99.99
2022-10-21T05:47:26.449Z,99.99
2022-10-21T05:48:26.404Z,99.99
2022-10-21T05:49:26.366Z,99.99
2022-10-21T05:50:26.341Z,99.99
2022-10-21T05:51:26.279Z,99.99
2022-10-21T05:52:26.239Z,99.99
2022-10-21T05:53:26.194Z,99.99
2022-10-21T05:54:26.151Z,99.99
2022-10-21T05:55:26.110Z,99.99
2022-10-21T05:56:26.084Z,99.99
2022-10-21T05:57:26.034Z,99.99
2022-10-21T05:58:25.986Z,99.99
2022-10-21T05:59:25.943Z,99.99
2022-10-21T06:03:47.873Z,99.99
2022-10-21T06:04:47.486Z,99.99
2022-10-21T06:05:47.677Z,99.99
2022-10-21T06:06:47.750Z,99.99
2022-10-21T06:07:47.347Z,99.99
2022-10-21T06:08:47.536Z,99.99
2022-10-21T06:09:47.282Z,99.99
2022-10-21T06:10:47.407Z,99.99
2022-10-21T06:11:47.481Z,99.99
2022-10-21T06:12:47.136Z,99.99
2022-10-21T06:13:47.222Z,99.99
2022-10-21T06:14:47.051Z,99.99
2022-10-21T06:15:50.348Z,99.99
2022-10-21T06:16:46.973Z,99.99
2022-10-21T06:17:47.053Z,99.99
2022-10-21T06:18:46.871Z,99.99
2022-10-21T06:19:50.133Z,99.99
2022-10-21T06:20:46.789Z,99.99
2022-10-21T06:21:46.880Z,99.99
2022-10-21T06:22:46.713Z,99.99
2022-10-21T06:23:46.951Z,99.99
2022-10-21T06:24:46.615Z,99.99
2022-10-21T06:25:46.708Z,99.99
2022-10-21T06:26:46.527Z,99.99
2022-10-21T06:27:46.710Z,99.99
2022-10-21T06:28:46.452Z,99.99
2022-10-21T06:29:46.441Z,99.99
2022-10-21T06:30:46.360Z,99.99
2022-10-21T06:31:46.539Z,99.99
2022-10-21T06:32:46.281Z,99.99
2022-10-21T06:33:46.342Z,99.99
2022-10-21T06:34:46.190Z,99.99
2022-10-21T06:35:46.411Z,99.99
2022-10-21T06:36:46.386Z,99.99
2022-10-21T06:37:46.056Z,99.99
2022-10-21T06:38:46.180Z,99.99
2022-10-21T06:39:45.971Z,99.99
2022-10-21T06:40:46.190Z,99.99
2022-10-21T06:41:45.897Z,99.99
2022-10-21T06:42:46.003Z,99.99
2022-10-21T06:43:45.803Z,99.99
2022-10-21T06:44:45.909Z,99.99
2022-10-21T06:45:45.709Z,99.99
2022-10-21T06:46:45.678Z,99.99
2022-10-21T06:47:45.905Z,99.99
2022-10-21T06:48:45.847Z,99.99
2022-10-21T06:49:45.546Z,99.99
2022-10-21T06:50:46.776Z,99.99
2022-10-21T06:51:45.457Z,99.99
2022-10-21T06:52:45.423Z,99.99
2022-10-21T06:53:47.619Z,99.99
2022-10-21T06:54:45.336Z,99.99
2022-10-21T06:55:45.598Z,99.99
2022-10-21T06:56:45.437Z,99.99
2022-10-21T06:57:45.399Z,99.99
2022-10-21T06:58:45.169Z,99.99
2022-10-21T06:59:46.434Z,99.99
2022-10-21T07:00:45.077Z,99.99
2022-10-21T07:02:01.330Z,99.99
2022-10-21T07:02:45.043Z,99.99
2022-10-21T07:03:45.230Z,99.99
2022-10-21T07:04:44.902Z,99.99
2022-10-21T07:05:45.245Z,99.99
2022-10-21T07:06:44.825Z,99.99
2022-10-21T07:07:45.133Z,99.99
2022-10-21T07:08:53.937Z,99.99
2022-10-21T07:09:44.778Z,99.99
2022-10-21T07:10:44.870Z,99.99
2022-10-21T07:11:44.638Z,99.99
2022-10-21T07:12:44.685Z,99.99
2022-10-21T07:13:44.521Z,99.99
2022-10-21T07:14:44.770Z,99.99
2022-10-21T07:15:44.517Z,99.99
2022-10-21T07:16:46.660Z,99.99
2022-10-21T07:17:44.403Z,99.99
2022-10-21T07:18:45.547Z,99.99
2022-10-21T07:19:44.276Z,99.99
2022-10-21T07:20:44.333Z,99.99
2022-10-21T07:21:44.342Z,99.99
2022-10-21T07:22:44.397Z,99.99
2022-10-21T07:23:44.355Z,99.99
2022-10-21T07:24:44.058Z,99.99
2022-10-21T07:25:45.205Z,99.99
2022-10-21T07:26:43.966Z,99.99
2022-10-21T07:27:47.361Z,99.99
2022-10-21T07:28:44.185Z,99.99
2022-10-21T07:29:43.839Z,99.99
2022-10-21T07:30:43.995Z,99.99
2022-10-21T07:31:44.062Z,99.99
2022-10-21T07:32:44.929Z,99.99
2022-10-21T07:33:43.670Z,99.99
2022-10-21T07:34:43.932Z,99.99
2022-10-21T07:35:43.621Z,99.99
2022-10-21T07:36:43.734Z,99.99
2022-10-21T07:37:43.523Z,99.99
2022-10-21T07:38:43.461Z,99.99
2022-10-21T07:39:43.419Z,99.99
2022-10-21T07:40:43.670Z,99.99
2022-10-21T07:41:43.332Z,99.99
2022-10-21T07:42:43.575Z,99.99
2022-10-21T07:43:43.429Z,99.99
2022-10-21T07:44:43.209Z,99.99
2022-10-21T07:45:43.165Z,99.99
2022-10-21T07:46:44.419Z,99.99
2022-10-21T07:47:43.083Z,99.99
2022-10-21T07:48:44.241Z,99.99
2022-10-21T07:49:43.045Z,99.99
2022-10-21T07:50:42.955Z,99.99
2022-10-21T07:51:43.299Z,99.99
2022-10-21T07:52:48.362Z,99.99
2022-10-21T07:53:42.822Z,99.99
2022-10-21T07:54:44.071Z,99.99
2022-10-21T07:55:42.908Z,99.99
2022-10-21T07:56:42.698Z,99.99
2022-10-21T07:57:42.862Z,99.99
2022-10-21T07:58:42.615Z,99.99
2022-10-21T07:59:42.781Z,99.99
2022-10-21T08:00:42.570Z,99.99
2022-10-21T08:01:42.873Z,99.99
2022-10-21T08:02:42.441Z,99.99
2022-10-21T08:03:42.600Z,99.99
2022-10-21T08:04:42.358Z,99.99
2022-10-21T08:05:42.618Z,99.99
2022-10-21T08:06:42.348Z,99.99
2022-10-21T08:07:42.477Z,99.99
2022-10-21T08:08:42.241Z,99.99
2022-10-21T08:09:42.493Z,99.99
2022-10-21T08:10:42.112Z,99.99
2022-10-21T08:11:42.250Z,99.99
2022-10-21T08:12:42.013Z,99.99
2022-10-21T08:13:41.988Z,99.99
2022-10-21T08:14:41.922Z,99.99
2022-10-21T08:15:43.097Z,99.99
2022-10-21T08:16:41.833Z,99.99
2022-10-21T08:17:42.086Z,99.99
2022-10-21T08:18:41.789Z,99.99
2022-10-21T08:19:41.729Z,99.99
2022-10-21T08:20:41.900Z,99.99
2022-10-21T08:21:41.620Z,99.99
2022-10-21T08:22:41.866Z,99.99
2022-10-21T08:23:41.556Z,99.99
2022-10-21T08:24:42.458Z,99.99
2022-10-21T08:25:41.934Z,99.99
2022-10-21T08:26:41.399Z,99.99
2022-10-21T08:27:41.544Z,99.99
2022-10-21T08:28:41.604Z,99.99
2022-10-21T08:29:42.586Z,99.99
2022-10-21T08:30:41.236Z,99.99
2022-10-21T08:31:41.192Z,99.99
2022-10-21T08:32:41.563Z,99.99
2022-10-21T08:33:41.107Z,99.99
2022-10-21T08:34:41.346Z,99.99
2022-10-21T08:35:41.356Z,99.99
2022-10-21T08:36:41.099Z,99.99
2022-10-21T08:37:40.935Z,99.99
2022-10-21T08:38:42.135Z,99.99
2022-10-21T08:39:40.842Z,99.99
2022-10-21T08:40:40.920Z,99.99
2022-10-21T08:41:40.792Z,99.99
2022-10-21T08:42:40.959Z,99.99
2022-10-21T08:43:40.725Z,99.99
2022-10-21T08:44:40.859Z,99.99
2022-10-21T08:45:40.593Z,99.99
2022-10-21T08:46:40.864Z,99.99
2022-10-21T08:47:40.722Z,99.99
2022-10-21T08:48:40.777Z,99.99
2022-10-21T08:49:40.425Z,99.99
2022-10-21T08:50:40.791Z,99.99
2022-10-21T08:51:40.336Z,99.99
2022-10-21T08:52:40.606Z,99.99
2022-10-21T08:53:40.270Z,99.99
2022-10-21T08:54:40.531Z,99.99
2022-10-21T08:55:40.417Z,99.99
2022-10-21T08:56:40.142Z,99.99
2022-10-21T08:57:41.735Z,99.99
2022-10-21T08:58:40.288Z,99.99
2022-10-21T08:59:40.247Z,99.99
2022-10-21T09:00:40.226Z,99.99
2022-10-21T09:01:39.908Z,99.99
2022-10-21T09:02:40.087Z,99.99
2022-10-21T09:03:39.831Z,99.99
2022-10-21T09:04:40.088Z,99.99
2022-10-21T09:05:39.751Z,99.99
2022-10-21T09:06:41.314Z,99.99
2022-10-21T09:07:39.774Z,99.99
2022-10-21T09:08:39.942Z,99.99
2022-10-21T09:09:39.567Z,99.99
2022-10-21T09:10:39.646Z,99.99
2022-10-21T09:11:39.487Z,99.99
2022-10-21T09:12:39.618Z,99.99
2022-10-21T09:13:39.396Z,99.99
2022-10-21T09:14:39.640Z,99.99
2022-10-21T09:15:39.320Z,99.99
2022-10-21T09:16:39.343Z,99.99
2022-10-21T09:17:39.598Z,99.99
2022-10-21T09:18:40.601Z,99.99
2022-10-21T09:19:39.155Z,99.99
2022-10-21T09:20:39.372Z,99.99
2022-10-21T09:21:39.067Z,99.99
2022-10-21T09:22:39.179Z,99.99
2022-10-21T09:23:38.993Z,99.99
2022-10-21T09:24:39.133Z,99.99
2022-10-21T09:25:38.895Z,99.99
2022-10-21T09:26:39.008Z,99.99
2022-10-21T09:27:55.130Z,99.99
2022-10-21T09:28:38.772Z,99.99
2022-10-21T09:29:38.829Z,99.99
2022-10-21T09:30:38.697Z,99.99
2022-10-21T09:31:38.651Z,99.99
2022-10-21T09:32:39.865Z,99.99
2022-10-21T09:33:38.579Z,99.99
2022-10-21T09:34:38.656Z,99.99
2022-10-21T09:35:38.615Z,99.99
2022-10-21T09:36:38.563Z,99.99
2022-10-21T09:37:38.578Z,99.99
2022-10-21T09:38:38.476Z,99.99
2022-10-21T09:39:38.330Z,99.99
2022-10-21T09:40:38.489Z,99.99
2022-10-21T09:41:38.237Z,99.99
2022-10-21T09:42:47.304Z,99.99
2022-10-21T09:43:38.463Z,99.99
2022-10-21T09:44:38.211Z,99.99
2022-10-21T09:45:38.078Z,99.99
2022-10-21T09:46:38.232Z,99.99
2022-10-21T09:47:37.986Z,99.99
2022-10-21T09:48:53.995Z,99.99
2022-10-21T09:50:05.280Z,99.99
2022-10-21T09:50:37.857Z,99.99
2022-10-21T09:51:38.879Z,99.99
2022-10-21T09:52:38.110Z,99.99
2022-10-21T09:53:37.768Z,99.99
2022-10-21T09:54:39.824Z,99.99
2022-10-21T09:55:37.841Z,99.99
2022-10-21T09:56:37.794Z,99.99
2022-10-21T09:57:37.577Z,99.99
2022-10-21T09:58:37.609Z,99.99
2022-10-21T09:59:37.580Z,99.99
2022-10-21T10:00:37.444Z,99.99
2022-10-21T10:01:38.585Z,99.99
2022-10-21T10:02:37.618Z,99.99
2022-10-21T10:03:37.534Z,99.99
2022-10-21T10:04:37.287Z,99.99
2022-10-21T10:05:37.342Z,99.99
2022-10-21T10:06:37.197Z,99.99
2022-10-21T10:07:37.160Z,99.99
2022-10-21T10:08:37.322Z,99.99
2022-10-21T10:09:40.702Z,99.99
2022-10-21T10:10:37.176Z,99.99
2022-10-21T10:11:36.996Z,99.99
2022-10-21T10:12:37.208Z,99.99
2022-10-21T10:13:36.989Z,99.99
2022-10-21T10:14:36.864Z,99.99
2022-10-21T10:15:37.928Z,99.99
2022-10-21T10:16:36.833Z,99.99
2022-10-21T10:17:36.920Z,99.99
2022-10-21T10:18:36.703Z,99.99
2022-10-21T10:20:36.631Z,99.99
2022-10-21T10:21:36.639Z,99.99
2022-10-21T10:22:37.996Z,99.99
2022-10-21T10:23:36.756Z,99.99
2022-10-21T10:24:36.457Z,99.99
2022-10-21T10:25:36.567Z,99.99
2022-10-21T10:26:36.620Z,99.99
2022-10-21T10:27:36.378Z,99.99
2022-10-21T10:28:36.326Z,99.99
2022-10-21T10:29:38.333Z,99.99
2022-10-21T10:30:36.213Z,99.99
2022-10-21T10:31:36.411Z,99.99
2022-10-21T10:32:36.374Z,99.99
2022-10-21T10:33:38.269Z,99.99
2022-10-21T10:34:36.047Z,99.99
2022-10-21T10:35:36.011Z,99.99
2022-10-21T10:36:35.987Z,99.99
2022-10-21T10:37:36.074Z,99.99
2022-10-21T10:38:35.886Z,99.99
2022-10-21T10:39:36.062Z,99.99
2022-10-21T10:40:35.828Z,99.99
2022-10-21T10:41:35.761Z,99.99
2022-10-21T10:42:38.092Z,99.99
2022-10-21T10:43:35.828Z,99.99
2022-10-21T10:44:35.799Z,99.99
2022-10-21T10:45:35.609Z,99.99
2022-10-21T10:46:35.771Z,99.99
2022-10-21T10:47:35.651Z,99.99
2022-10-21T10:48:35.712Z,99.99
2022-10-21T10:49:35.475Z,99.99
2022-10-21T10:50:35.419Z,99.99
2022-10-21T10:51:35.355Z,99.99
2022-10-21T10:52:35.473Z,99.99
2022-10-21T10:53:35.279Z,99.99
2022-10-21T10:54:35.446Z,99.99
2022-10-21T10:55:35.308Z,99.99
2022-10-21T10:56:35.258Z,99.99
2022-10-21T10:57:44.421Z,99.99
2022-10-21T10:58:35.068Z,99.99
2022-10-21T10:59:35.176Z,99.99
2022-10-21T11:00:34.992Z,99.99
2022-10-21T11:01:36.154Z,99.99
2022-10-21T11:02:34.909Z,99.99
2022-10-21T11:03:37.917Z,99.99
2022-10-21T11:04:34.833Z,99.99
2022-10-21T11:05:35.945Z,99.99
2022-10-21T11:06:34.755Z,99.99
2022-10-21T11:07:34.934Z,99.99
2022-10-21T11:08:34.971Z,99.99
2022-10-21T11:09:34.799Z,99.99
2022-10-21T11:10:34.742Z,99.99
2022-10-21T11:11:34.551Z,99.99
2022-10-21T11:12:34.553Z,99.99
2022-10-21T11:13:35.514Z,99.99
2022-10-21T11:14:55.667Z,99.99
2022-10-21T11:15:34.389Z,99.99
2022-10-21T11:16:50.603Z,99.99
2022-10-21T11:17:34.557Z,99.99
2022-10-21T11:18:34.270Z,99.99
2022-10-21T11:19:34.403Z,99.99
2022-10-21T11:20:34.455Z,99.99
2022-10-21T11:21:34.226Z,99.99
2022-10-21T11:22:34.219Z,99.99
2022-10-21T11:23:34.074Z,99.99
2022-10-21T11:24:35.259Z,99.99
2022-10-21T11:25:34.024Z,99.99
2022-10-21T11:26:34.103Z,99.99
2022-10-21T11:27:33.916Z,99.99
2022-10-21T11:28:33.891Z,99.99
2022-10-21T11:29:34.095Z,99.99
2022-10-21T11:30:33.798Z,99.79
2022-10-21T11:31:43.907Z,99.99
2022-10-21T11:32:33.712Z,99.99
2022-10-21T11:33:34.719Z,99.88
2022-10-21T11:34:33.632Z,99.69
2022-10-21T11:35:34.738Z,99.99
2022-10-21T11:36:33.545Z,99.99
2022-10-21T11:37:33.711Z,99.99
2022-10-21T11:38:33.464Z,99.99
2022-10-21T11:39:34.551Z,99.99
2022-10-21T11:40:35.632Z,99.99
2022-10-21T11:41:34.569Z,99.99
2022-10-21T11:42:33.372Z,99.59
2022-10-21T11:43:34.373Z,99.99
2022-10-21T11:44:33.227Z,99.88
2022-10-21T11:45:33.208Z,99.99
2022-10-21T11:46:33.161Z,99.99
2022-10-21T11:47:33.681Z,99.99
2022-10-21T11:48:33.093Z,99.59
2022-10-21T11:49:36.383Z,98.72
2022-10-21T11:50:32.988Z,98.63
2022-10-21T11:51:33.043Z,98.54
2022-10-21T11:52:32.909Z,99.02
2022-10-21T11:53:33.012Z,99.40
2022-10-21T11:54:32.828Z,99.45
2022-10-21T11:55:34.050Z,98.77
2022-10-21T11:56:32.744Z,98.20
2022-10-21T11:57:32.709Z,97.52
2022-10-21T11:58:33.769Z,96.46
2022-10-21T11:59:32.638Z,96.46
2022-10-21T12:00:32.759Z,94.82
2022-10-21T12:01:32.545Z,94.96
2022-10-21T12:02:33.628Z,95.36
2022-10-21T12:03:32.467Z,94.96
2022-10-21T12:04:32.574Z,94.29
2022-10-21T12:05:32.388Z,94.96
2022-10-21T12:06:33.091Z,95.50
2022-10-21T12:07:32.400Z,94.63
2022-10-21T12:08:32.271Z,94.43
2022-10-21T12:09:32.230Z,92.36
2022-10-21T12:10:32.419Z,92.07
2022-10-21T12:11:32.153Z,89.70
2022-10-21T12:12:33.167Z,90.71
2022-10-21T12:13:33.308Z,90.75
2022-10-21T12:14:32.038Z,89.69
2022-10-21T12:15:31.998Z,88.39
2022-10-21T12:16:32.054Z,87.81
2022-10-21T12:17:31.982Z,87.46
2022-10-21T12:18:31.967Z,84.17
2022-10-21T12:19:31.871Z,81.85
2022-10-21T12:20:31.806Z,79.72
2022-10-21T12:21:31.891Z,81.50
2022-10-21T12:22:31.730Z,80.63
2022-10-21T12:23:31.797Z,79.37
2022-10-21T12:24:31.657Z,76.56
2022-10-21T12:25:31.829Z,78.59
2022-10-21T12:26:31.626Z,77.09
2022-10-21T12:27:32.653Z,75.21
2022-10-21T12:28:31.531Z,76.18
2022-10-21T12:29:31.647Z,77.24
2022-10-21T12:30:31.434Z,75.75
2022-10-21T12:31:31.652Z,75.60
2022-10-21T12:32:31.357Z,73.43
2022-10-21T12:33:31.455Z,72.95
2022-10-21T12:34:31.432Z,74.07
2022-10-21T12:35:32.577Z,73.88
2022-10-21T12:36:31.207Z,74.94
2022-10-21T12:37:31.168Z,76.20
2022-10-21T12:38:31.137Z,77.26
2022-10-21T12:39:32.227Z,77.07
2022-10-21T12:40:31.090Z,76.45
2022-10-21T12:41:32.232Z,76.35
2022-10-21T12:42:30.985Z,75.68
2022-10-21T12:43:30.942Z,77.03
2022-10-21T12:44:30.949Z,78.06
2022-10-21T12:45:31.042Z,79.80
2022-10-21T12:46:33.755Z,80.38
2022-10-21T12:47:30.842Z,80.08
2022-10-21T12:48:30.753Z,81.73
2022-10-21T12:49:30.711Z,82.50
2022-10-21T12:50:30.863Z,81.73
2022-10-21T12:51:30.635Z,79.99
2022-10-21T12:52:30.679Z,79.89
2022-10-21T12:53:30.555Z,81.88
2022-10-21T12:54:30.962Z,81.68
2022-10-21T12:55:30.478Z,82.17
2022-10-21T12:56:30.601Z,83.62
2022-10-21T12:57:30.411Z,83.52